createdAt,value
2023-05-12T00:00:17.183Z,2.88
2023-05-12T00:02:47.054Z,3.17
2023-05-12T00:05:15.597Z,2.60
2023-05-12T00:07:43.893Z,3.22
2023-05-12T00:10:12.582Z,2.53
2023-05-12T00:12:41.383Z,2.88
2023-05-12T00:15:11.825Z,2.58
2023-05-12T00:17:40.181Z,2.72
2023-05-12T00:20:09.568Z,2.42
2023-05-12T00:22:37.913Z,2.42
2023-05-12T00:25:07.121Z,2.30
2023-05-12T00:27:35.559Z,2.63
2023-05-12T00:30:04.029Z,2.42
2023-05-12T00:32:33.790Z,2.45
2023-05-12T00:35:02.393Z,2.80
2023-05-12T00:37:30.990Z,3.00
2023-05-12T00:39:59.522Z,2.72
2023-05-12T00:42:28.462Z,3.00
2023-05-12T00:44:56.941Z,3.47
2023-05-12T00:47:25.462Z,3.60
2023-05-12T00:49:55.527Z,2.88
2023-05-12T00:52:23.915Z,3.10
2023-05-12T00:54:52.264Z,3.50
2023-05-12T00:57:20.870Z,3.03
2023-05-12T00:59:49.090Z,3.45
2023-05-12T01:02:17.457Z,3.15
2023-05-12T01:04:46.999Z,3.25
2023-05-12T01:07:19.886Z,2.78
2023-05-12T01:09:49.003Z,3.08
2023-05-12T01:12:17.391Z,3.30
2023-05-12T01:14:45.980Z,2.72
2023-05-12T01:17:14.896Z,3.03
2023-05-12T01:19:45.850Z,3.47
2023-05-12T01:22:14.309Z,3.38
2023-05-12T01:24:47.804Z,3.65
2023-05-12T01:27:18.319Z,3.38
2023-05-12T01:29:47.122Z,3.28
2023-05-12T01:32:17.762Z,2.72
2023-05-12T01:34:46.231Z,3.20
2023-05-12T01:37:14.769Z,3.67
2023-05-12T01:39:43.242Z,2.75
2023-05-12T01:42:18.122Z,2.95
2023-05-12T01:44:46.628Z,2.47
2023-05-12T01:47:15.859Z,2.47
2023-05-12T01:49:49.317Z,2.63
2023-05-12T01:52:18.349Z,2.35
2023-05-12T01:54:46.707Z,2.60
2023-05-12T01:57:15.804Z,2.88
2023-05-12T01:59:45.694Z,3.67
2023-05-12T02:02:14.340Z,2.58
2023-05-12T02:04:43.220Z,3.00
2023-05-12T02:07:11.446Z,3.55
2023-05-12T02:09:39.672Z,3.13
2023-05-12T02:12:08.502Z,4.03
2023-05-12T02:14:36.788Z,3.67
2023-05-12T02:17:07.109Z,3.85
2023-05-12T02:19:36.092Z,3.83
2023-05-12T02:22:04.413Z,3.08
2023-05-12T02:24:32.635Z,3.40
2023-05-12T02:27:01.671Z,3.38
2023-05-12T02:29:30.007Z,3.80
2023-05-12T02:31:58.662Z,3.95
2023-05-12T02:34:28.755Z,3.80
2023-05-12T02:36:58.126Z,3.47
2023-05-12T02:39:27.501Z,3.60
2023-05-12T02:41:55.867Z,3.30
2023-05-12T02:44:24.138Z,3.65
2023-05-12T02:46:52.741Z,3.30
2023-05-12T02:49:21.194Z,4.40
2023-05-12T02:51:51.082Z,4.50
2023-05-12T02:54:19.764Z,3.90
2023-05-12T02:56:48.069Z,3.42
2023-05-12T02:59:16.470Z,3.78
2023-05-12T03:01:45.442Z,3.63
2023-05-12T03:04:13.698Z,3.95
2023-05-12T03:06:42.275Z,4.53
2023-05-12T03:09:11.994Z,3.92
2023-05-12T03:11:40.709Z,4.63
2023-05-12T03:14:09.063Z,3.35
2023-05-12T03:16:37.420Z,3.70
2023-05-12T03:19:05.928Z,4.50
2023-05-12T03:21:34.483Z,3.75
2023-05-12T03:24:03.171Z,3.78
2023-05-12T03:26:33.639Z,3.95
2023-05-12T03:29:02.184Z,3.55
2023-05-12T03:31:30.783Z,3.20
2023-05-12T03:33:59.840Z,2.90
2023-05-12T03:36:28.499Z,3.78
2023-05-12T03:38:58.225Z,3.90
2023-05-12T03:41:26.832Z,3.92
2023-05-12T03:43:56.835Z,3.85
2023-05-12T03:46:25.482Z,3.88
2023-05-12T03:48:54.488Z,4.35
2023-05-12T03:51:22.749Z,3.78
2023-05-12T03:53:52.809Z,3.53
2023-05-12T03:56:21.506Z,3.15
2023-05-12T03:58:49.901Z,3.55
2023-05-12T04:01:19.785Z,3.22
2023-05-12T04:03:48.683Z,3.40
2023-05-12T04:06:17.116Z,3.80
2023-05-12T04:08:45.460Z,3.28
2023-05-12T04:11:14.058Z,3.83
2023-05-12T04:13:44.060Z,3.55
2023-05-12T04:16:12.436Z,3.60
2023-05-12T04:18:42.155Z,3.33
2023-05-12T04:21:10.548Z,3.65
2023-05-12T04:23:38.878Z,3.30
2023-05-12T04:26:07.217Z,3.40
2023-05-12T04:28:36.989Z,4.00
2023-05-12T04:31:05.405Z,3.90
2023-05-12T04:33:34.312Z,4.25
2023-05-12T04:36:05.629Z,4.35
2023-05-12T04:38:33.931Z,4.35
2023-05-12T04:41:03.501Z,4.22
2023-05-12T04:46:03.641Z,4.93
2023-05-12T04:48:32.371Z,4.95
2023-05-12T04:51:00.738Z,5.50
2023-05-12T04:53:34.619Z,5.38
2023-05-12T04:56:03.158Z,5.60
2023-05-12T04:58:36.265Z,6.85
2023-05-12T05:01:04.987Z,6.05
2023-05-12T05:03:34.642Z,7.05
2023-05-12T05:06:03.201Z,6.85
2023-05-12T05:08:33.153Z,7.30
2023-05-12T05:11:01.999Z,7.63
2023-05-12T05:13:31.735Z,7.82
2023-05-12T05:16:00.222Z,8.02
2023-05-12T05:18:29.384Z,9.98
2023-05-12T05:20:59.214Z,10.38
2023-05-12T05:23:28.491Z,11.32
2023-05-12T05:25:58.697Z,12.15
2023-05-12T05:28:27.092Z,10.25
2023-05-12T05:30:55.482Z,11.45
2023-05-12T05:33:23.810Z,11.43
2023-05-12T05:35:52.157Z,10.98
2023-05-12T05:38:20.843Z,11.63
2023-05-12T05:40:53.538Z,11.38
2023-05-12T05:43:25.429Z,10.18
2023-05-12T05:45:55.905Z,10.55
2023-05-12T05:48:24.798Z,11.20
2023-05-12T05:50:54.071Z,11.63
2023-05-12T05:53:24.093Z,10.82
2023-05-12T05:55:53.367Z,11.02
2023-05-12T05:58:21.723Z,11.35
2023-05-12T06:00:51.599Z,11.38
2023-05-12T06:03:20.684Z,11.38
2023-05-12T06:05:49.341Z,10.98
2023-05-12T06:08:17.743Z,11.20
2023-05-12T06:10:46.241Z,12.25
2023-05-12T06:13:14.574Z,11.48
2023-05-12T06:15:42.914Z,11.10
2023-05-12T06:18:14.842Z,12.02
2023-05-12T06:20:43.252Z,11.05
2023-05-12T06:23:11.828Z,10.75
2023-05-12T06:25:40.731Z,11.70
2023-05-12T06:28:09.054Z,11.55
2023-05-12T06:30:37.350Z,11.88
2023-05-12T06:33:05.938Z,12.88
2023-05-12T06:35:35.685Z,12.25
2023-05-12T06:38:07.257Z,11.20
2023-05-12T06:40:35.513Z,11.90
2023-05-12T06:43:03.870Z,11.68
2023-05-12T06:45:36.837Z,11.70
2023-05-12T06:48:05.989Z,12.60
2023-05-12T06:50:35.846Z,13.52
2023-05-12T06:53:05.299Z,12.05
2023-05-12T06:55:33.598Z,12.82
2023-05-12T06:58:01.951Z,12.70
2023-05-12T07:00:30.744Z,12.77
2023-05-12T07:02:59.271Z,12.10
2023-05-12T07:05:27.784Z,12.07
2023-05-12T07:07:57.596Z,10.40
2023-05-12T07:10:25.884Z,12.93
2023-05-12T07:12:54.154Z,13.30
2023-05-12T07:15:23.119Z,11.85
2023-05-12T07:17:51.533Z,12.55
2023-05-12T07:20:19.909Z,12.82
2023-05-12T07:22:48.223Z,13.65
2023-05-12T07:25:18.082Z,12.50
2023-05-12T07:27:46.819Z,12.02
2023-05-12T07:30:15.583Z,10.68
2023-05-12T07:32:44.009Z,12.00
2023-05-12T07:35:12.497Z,12.75
2023-05-12T07:37:41.401Z,13.05
2023-05-12T07:40:10.120Z,12.45
2023-05-12T07:42:39.818Z,11.57
2023-05-12T07:45:08.522Z,11.95
2023-05-12T07:47:36.902Z,11.68
2023-05-12T07:50:05.417Z,11.05
2023-05-12T07:52:33.969Z,10.68
2023-05-12T07:55:02.346Z,10.85
2023-05-12T07:57:30.908Z,10.70
2023-05-12T08:00:00.855Z,11.23
2023-05-12T08:02:29.400Z,10.75
2023-05-12T08:04:57.689Z,12.15
2023-05-12T08:07:26.191Z,11.25
2023-05-12T08:09:55.314Z,10.25
2023-05-12T08:12:23.684Z,10.82
2023-05-12T08:14:52.078Z,10.75
2023-05-12T08:17:23.243Z,11.32
2023-05-12T08:19:51.569Z,11.07
2023-05-12T08:22:20.049Z,10.85
2023-05-12T08:24:48.271Z,9.32
2023-05-12T08:27:16.624Z,10.93
2023-05-12T08:29:44.961Z,11.00
2023-05-12T08:32:13.295Z,9.90
2023-05-12T08:34:42.816Z,10.93
2023-05-12T08:37:11.210Z,10.23
2023-05-12T08:39:39.464Z,10.30
2023-05-12T08:42:13.870Z,9.48
2023-05-12T08:44:42.352Z,9.75
2023-05-12T08:47:11.090Z,8.80
2023-05-12T08:49:40.980Z,9.00
2023-05-12T08:52:11.043Z,9.02
2023-05-12T08:54:48.679Z,9.93
2023-05-12T08:57:21.673Z,9.57
2023-05-12T08:59:50.038Z,9.60
2023-05-12T09:02:19.140Z,9.45
2023-05-12T09:04:48.360Z,9.82
2023-05-12T09:07:18.938Z,8.13
2023-05-12T09:09:48.784Z,8.75
2023-05-12T09:12:18.059Z,10.00
2023-05-12T09:14:47.028Z,9.55
2023-05-12T09:17:15.385Z,8.88
2023-05-12T09:19:43.655Z,7.82
2023-05-12T09:22:14.881Z,8.35
2023-05-12T09:24:44.901Z,7.82
2023-05-12T09:27:13.150Z,8.57
2023-05-12T09:29:59.303Z,8.60
2023-05-12T09:32:35.260Z,7.75
2023-05-12T09:35:04.993Z,9.40
2023-05-12T09:37:33.536Z,9.40
2023-05-12T09:40:04.910Z,8.85
2023-05-12T09:42:34.711Z,9.50
2023-05-12T09:45:04.170Z,8.05
2023-05-12T09:47:38.828Z,8.82
2023-05-12T09:50:08.156Z,8.55
2023-05-12T09:52:37.938Z,8.05
2023-05-12T09:55:09.588Z,8.73
2023-05-12T09:57:40.666Z,7.75
2023-05-12T10:00:20.177Z,9.02
2023-05-12T10:02:59.763Z,7.95
2023-05-12T10:05:28.783Z,6.85
2023-05-12T10:07:57.320Z,5.50
2023-05-12T10:10:27.871Z,5.82
2023-05-12T10:12:56.293Z,4.85
2023-05-12T10:15:25.803Z,4.88
2023-05-12T10:17:56.156Z,4.05
2023-05-12T10:20:25.013Z,4.40
2023-05-12T10:22:53.670Z,4.53
2023-05-12T10:25:23.364Z,4.20
2023-05-12T10:27:54.096Z,4.15
2023-05-12T10:30:22.840Z,4.07
2023-05-12T10:32:51.202Z,4.22
2023-05-12T10:35:19.657Z,4.00
2023-05-12T10:37:48.912Z,5.55
2023-05-12T10:40:25.572Z,5.47
2023-05-12T10:42:59.768Z,5.25
2023-05-12T10:45:28.544Z,5.93
2023-05-12T10:48:06.795Z,5.00
2023-05-12T10:50:35.222Z,5.10
2023-05-12T10:53:03.677Z,4.30
2023-05-12T10:55:33.088Z,4.75
2023-05-12T10:58:11.732Z,3.35
2023-05-12T11:00:47.742Z,3.08
2023-05-12T11:03:18.818Z,3.20
2023-05-12T11:05:48.994Z,2.95
2023-05-12T11:08:18.045Z,3.30
2023-05-12T11:10:47.964Z,3.45
2023-05-12T11:13:19.188Z,3.80
2023-05-12T11:15:48.587Z,4.28
2023-05-12T11:18:21.750Z,4.10
2023-05-12T11:20:50.132Z,3.92
2023-05-12T11:23:29.018Z,3.40
2023-05-12T11:25:57.695Z,3.10
2023-05-12T11:28:27.364Z,2.83
2023-05-12T11:30:55.992Z,2.45
2023-05-12T11:33:24.669Z,1.80
2023-05-12T11:35:53.154Z,2.20
2023-05-12T11:38:24.465Z,1.90
2023-05-12T11:40:52.909Z,2.60
2023-05-12T11:43:22.229Z,2.60
2023-05-12T11:45:51.891Z,2.38
2023-05-12T11:48:21.817Z,1.92
2023-05-12T11:50:51.762Z,2.00
2023-05-12T11:53:20.705Z,2.17
2023-05-12T11:55:50.164Z,2.60
2023-05-12T11:58:21.842Z,1.90
2023-05-12T12:00:52.694Z,1.42
2023-05-12T12:03:21.544Z,1.63
2023-05-12T12:05:59.875Z,1.83
2023-05-12T12:08:28.755Z,1.50
2023-05-12T12:10:56.968Z,1.40
2023-05-12T12:13:26.094Z,1.50
2023-05-12T12:15:56.050Z,1.30
2023-05-12T12:18:25.144Z,1.30
2023-05-12T12:20:53.486Z,1.33
2023-05-12T12:23:22.007Z,1.55
2023-05-12T12:25:50.412Z,1.17
2023-05-12T12:28:18.684Z,1.40
2023-05-12T12:30:46.873Z,1.27
2023-05-12T12:33:18.714Z,1.20
2023-05-12T12:35:48.796Z,1.52
2023-05-12T12:38:17.085Z,1.10
2023-05-12T12:40:45.701Z,1.23
2023-05-12T12:43:14.113Z,1.10
2023-05-12T12:45:42.335Z,1.90
2023-05-12T12:48:10.685Z,1.42
2023-05-12T12:50:40.508Z,1.90
2023-05-12T12:53:09.686Z,3.08
2023-05-12T12:55:37.943Z,1.60
2023-05-12T12:58:06.224Z,1.77
2023-05-12T13:00:34.562Z,1.42
2023-05-12T13:03:03.209Z,1.80
2023-05-12T13:05:31.732Z,1.10
2023-05-12T13:08:01.705Z,1.95
2023-05-12T13:10:29.908Z,1.38
2023-05-12T13:12:58.456Z,1.65
2023-05-12T13:15:26.921Z,2.20
2023-05-12T13:17:55.224Z,3.05
2023-05-12T13:20:23.581Z,7.03
2023-05-12T13:22:51.840Z,7.10
2023-05-12T13:25:21.947Z,6.30
2023-05-12T13:27:50.589Z,6.60
2023-05-12T13:30:18.900Z,7.20
2023-05-12T13:32:48.213Z,9.00
2023-05-12T13:35:16.658Z,8.48
2023-05-12T13:37:45.017Z,8.80
2023-05-12T13:40:13.756Z,7.45
2023-05-12T13:42:43.364Z,8.40
2023-05-12T13:45:12.153Z,7.32
2023-05-12T13:47:40.522Z,7.65
2023-05-12T13:50:09.498Z,7.25
2023-05-12T13:52:37.872Z,7.72
2023-05-12T13:55:06.486Z,7.93
2023-05-12T13:57:34.849Z,7.80
2023-05-12T14:00:05.028Z,8.75
2023-05-12T14:02:34.236Z,7.60
2023-05-12T14:05:02.582Z,7.47
2023-05-12T14:07:31.321Z,8.10
2023-05-12T14:10:00.270Z,6.90
2023-05-12T14:12:28.821Z,7.22
2023-05-12T14:15:07.317Z,7.55
2023-05-12T14:17:41.995Z,8.07
2023-05-12T14:20:11.611Z,8.07
2023-05-12T14:22:39.826Z,7.93
2023-05-12T14:25:08.326Z,8.23
2023-05-12T14:27:36.740Z,7.15
2023-05-12T14:30:05.504Z,8.55
2023-05-12T14:32:34.366Z,8.85
2023-05-12T14:35:04.460Z,8.13
2023-05-12T14:37:33.434Z,7.57
2023-05-12T14:40:01.865Z,8.27
2023-05-12T14:42:32.205Z,8.10
2023-05-12T14:45:00.817Z,8.02
2023-05-12T14:47:29.604Z,8.45
2023-05-12T14:49:58.130Z,7.10
2023-05-12T14:52:28.488Z,6.22
2023-05-12T14:54:56.826Z,6.28
2023-05-12T14:57:25.225Z,7.57
2023-05-12T14:59:58.711Z,6.50
2023-05-12T15:02:27.309Z,7.88
2023-05-12T15:04:55.682Z,7.18
2023-05-12T15:07:23.997Z,6.60
2023-05-12T15:09:53.700Z,7.03
2023-05-12T15:12:21.994Z,5.63
2023-05-12T15:14:50.293Z,6.07
2023-05-12T15:17:18.958Z,5.50
2023-05-12T15:19:47.675Z,6.35
2023-05-12T15:22:16.032Z,5.43
2023-05-12T15:24:44.798Z,5.55
2023-05-12T15:27:14.458Z,4.93
2023-05-12T15:29:43.074Z,4.50
2023-05-12T15:32:11.423Z,5.82
2023-05-12T15:34:40.136Z,5.53
2023-05-12T15:37:08.341Z,5.35
2023-05-12T15:39:36.733Z,4.90
2023-05-12T15:42:07.185Z,5.05
2023-05-12T15:44:37.205Z,5.25
2023-05-12T15:47:06.112Z,5.07
2023-05-12T15:49:34.379Z,4.95
2023-05-12T15:52:02.788Z,4.85
2023-05-12T15:54:31.468Z,5.28
2023-05-12T15:56:59.876Z,5.25
2023-05-12T15:59:28.563Z,5.15
2023-05-12T16:01:58.691Z,4.60
2023-05-12T16:04:30.220Z,4.88
2023-05-12T16:06:58.798Z,4.93
2023-05-12T16:09:27.057Z,4.82
2023-05-12T16:11:57.315Z,5.75
2023-05-12T16:14:26.421Z,5.30
2023-05-12T16:16:54.797Z,5.57
2023-05-12T16:19:26.531Z,5.75
2023-05-12T16:21:57.513Z,5.75
2023-05-12T16:24:28.556Z,5.45
2023-05-12T16:26:56.963Z,4.90
2023-05-12T16:29:25.195Z,4.70
2023-05-12T16:31:53.713Z,5.43
2023-05-12T16:34:22.210Z,5.13
2023-05-12T16:36:52.102Z,5.70
2023-05-12T16:39:20.840Z,5.15
2023-05-12T16:41:49.247Z,4.85
2023-05-12T16:44:17.489Z,5.55
2023-05-12T16:46:45.812Z,4.13
2023-05-12T16:49:14.169Z,1.85
2023-05-12T16:51:43.034Z,1.80
2023-05-12T16:54:12.658Z,1.80
2023-05-12T16:56:41.106Z,1.30
2023-05-12T16:59:09.441Z,1.48
2023-05-12T17:01:39.354Z,1.75
2023-05-12T17:04:07.860Z,2.20
2023-05-12T17:06:36.284Z,1.48
2023-05-12T17:09:05.651Z,1.95
2023-05-12T17:11:35.360Z,1.95
2023-05-12T17:14:04.853Z,2.28
2023-05-12T17:16:34.781Z,2.15
2023-05-12T17:21:34.459Z,2.10
2023-05-12T17:24:02.757Z,2.05
2023-05-12T17:26:31.248Z,1.73
2023-05-12T17:29:02.967Z,2.10
2023-05-12T17:31:31.756Z,2.00
2023-05-12T17:34:00.083Z,2.35
2023-05-12T17:36:28.913Z,2.30
2023-05-12T17:38:57.158Z,2.22
2023-05-12T17:41:28.355Z,2.08
2023-05-12T17:43:57.436Z,2.42
2023-05-12T17:46:27.551Z,2.30
2023-05-12T17:48:56.118Z,2.30
2023-05-12T17:51:24.454Z,2.28
2023-05-12T17:53:52.901Z,1.88
2023-05-12T17:56:21.387Z,1.83
2023-05-12T17:58:49.769Z,1.90
2023-05-12T18:01:18.066Z,1.60
2023-05-12T18:03:47.733Z,2.25
2023-05-12T18:06:16.135Z,1.90
2023-05-12T18:08:44.824Z,1.92
2023-05-12T18:11:13.682Z,1.50
2023-05-12T18:13:42.376Z,2.50
2023-05-12T18:16:18.207Z,1.98
2023-05-12T18:18:58.632Z,1.83
2023-05-12T18:21:26.957Z,1.77
2023-05-12T18:23:55.229Z,2.08
2023-05-12T18:26:23.646Z,1.95
2023-05-12T18:28:51.981Z,2.00
2023-05-12T18:31:20.390Z,1.95
2023-05-12T18:33:48.769Z,2.83
2023-05-12T18:36:18.509Z,2.47
2023-05-12T18:38:47.256Z,3.08
2023-05-12T18:41:15.805Z,3.03
2023-05-12T18:43:44.804Z,4.90
2023-05-12T18:46:13.530Z,4.40
2023-05-12T18:48:41.804Z,4.20
2023-05-12T18:51:10.696Z,5.20
2023-05-12T18:53:40.836Z,5.38
2023-05-12T18:56:09.285Z,5.72
2023-05-12T18:58:38.767Z,6.05
2023-05-12T19:01:07.046Z,6.30
2023-05-12T19:03:35.451Z,5.43
2023-05-12T19:06:03.794Z,5.43
2023-05-12T19:08:32.013Z,5.22
2023-05-12T19:11:01.746Z,5.38
2023-05-12T19:13:30.045Z,4.05
2023-05-12T19:15:58.739Z,5.03
2023-05-12T19:18:27.247Z,6.82
2023-05-12T19:20:55.876Z,6.40
2023-05-12T19:23:24.453Z,6.10
2023-05-12T19:25:52.798Z,5.50
2023-05-12T19:28:22.474Z,5.15
2023-05-12T19:30:50.798Z,6.00
2023-05-12T19:33:19.376Z,6.50
2023-05-12T19:35:47.793Z,7.50
2023-05-12T19:38:16.027Z,8.43
2023-05-12T19:40:44.356Z,6.75
2023-05-12T19:43:12.730Z,7.90
2023-05-12T19:45:42.524Z,8.05
2023-05-12T19:48:11.418Z,7.82
2023-05-12T19:50:40.049Z,7.40
2023-05-12T19:53:10.447Z,7.32
2023-05-12T19:55:39.045Z,7.93
2023-05-12T19:58:08.920Z,7.65
2023-05-12T20:00:39.324Z,7.65
2023-05-12T20:03:09.270Z,8.30
2023-05-12T20:05:37.964Z,7.47
2023-05-12T20:08:06.467Z,7.68
2023-05-12T20:10:34.706Z,7.78
2023-05-12T20:13:03.853Z,7.72
2023-05-12T20:15:32.268Z,6.70
2023-05-12T20:18:00.885Z,9.02
2023-05-12T20:20:31.434Z,7.85
2023-05-12T20:22:59.993Z,7.53
2023-05-12T20:25:31.413Z,7.50
2023-05-12T20:27:59.910Z,7.80
2023-05-12T20:30:28.507Z,7.47
2023-05-12T20:32:56.846Z,8.18
2023-05-12T20:35:25.177Z,7.97
2023-05-12T20:37:54.805Z,7.10
2023-05-12T20:40:23.502Z,7.38
2023-05-12T20:42:51.866Z,8.15
2023-05-12T20:45:20.568Z,7.13
2023-05-12T20:47:49.292Z,7.72
2023-05-12T20:50:18.004Z,7.57
2023-05-12T20:52:47.422Z,7.65
2023-05-12T20:55:17.130Z,7.32
2023-05-12T20:57:45.522Z,7.82
2023-05-12T21:00:14.772Z,6.28
2023-05-12T21:02:45.447Z,7.72
2023-05-12T21:05:13.781Z,7.38
2023-05-12T21:07:42.018Z,7.47
2023-05-12T21:10:10.731Z,7.00
2023-05-12T21:12:40.463Z,7.35
2023-05-12T21:15:13.184Z,7.38
2023-05-12T21:17:42.082Z,7.97
2023-05-12T21:20:11.745Z,7.47
2023-05-12T21:22:41.414Z,8.48
2023-05-12T21:25:10.151Z,6.93
2023-05-12T21:27:41.392Z,7.97
2023-05-12T21:30:10.299Z,8.35
2023-05-12T21:32:39.500Z,7.65
2023-05-12T21:35:08.260Z,8.13
2023-05-12T21:37:36.594Z,7.75
2023-05-12T21:40:05.168Z,8.73
2023-05-12T21:42:33.502Z,7.35
2023-05-12T21:45:03.069Z,7.20
2023-05-12T21:47:31.834Z,7.95
2023-05-12T21:50:00.832Z,7.85
2023-05-12T21:52:29.695Z,8.38
2023-05-12T21:54:58.020Z,8.25
2023-05-12T21:57:26.667Z,9.63
2023-05-12T21:59:56.223Z,9.05
2023-05-12T22:02:26.211Z,9.57
2023-05-12T22:04:54.549Z,10.63
2023-05-12T22:07:23.598Z,10.10
2023-05-12T22:09:52.393Z,9.40
2023-05-12T22:12:21.966Z,9.90
2023-05-12T22:14:50.366Z,10.40
2023-05-12T22:17:18.943Z,10.15
2023-05-12T22:19:48.551Z,10.10
2023-05-12T22:22:16.825Z,10.93
2023-05-12T22:24:45.240Z,11.27
2023-05-12T22:27:13.669Z,10.57
2023-05-12T22:29:41.874Z,10.68
2023-05-12T22:32:10.175Z,10.38
2023-05-12T22:34:38.402Z,10.98
2023-05-12T22:37:08.021Z,11.95
2023-05-12T22:39:36.787Z,11.60
2023-05-12T22:42:06.022Z,11.13
2023-05-12T22:44:34.296Z,11.35
2023-05-12T22:47:02.746Z,10.50
2023-05-12T22:49:31.030Z,12.35
2023-05-12T22:51:59.919Z,12.90
2023-05-12T22:54:29.813Z,11.60
2023-05-12T22:56:58.261Z,11.57
2023-05-12T22:59:26.852Z,12.55
2023-05-12T23:01:55.143Z,11.60
2023-05-12T23:04:23.451Z,10.65
2023-05-12T23:06:51.738Z,11.38
2023-05-12T23:09:19.947Z,11.15
2023-05-12T23:11:49.532Z,11.65
2023-05-12T23:14:17.742Z,10.52
2023-05-12T23:16:48.001Z,11.80
2023-05-12T23:19:16.663Z,9.48
2023-05-12T23:21:45.353Z,9.98
2023-05-12T23:24:13.600Z,9.95
2023-05-12T23:26:41.861Z,11.23
2023-05-12T23:29:11.430Z,10.30
2023-05-12T23:31:39.841Z,9.57
2023-05-12T23:34:08.174Z,9.82
2023-05-12T23:36:36.401Z,9.57
2023-05-12T23:39:04.812Z,9.52
2023-05-12T23:41:33.985Z,8.88
2023-05-12T23:44:02.325Z,10.10
2023-05-12T23:46:32.244Z,8.85
2023-05-12T23:49:00.780Z,8.02
2023-05-12T23:51:29.703Z,9.35
2023-05-12T23:53:58.178Z,9.10
2023-05-12T23:56:26.816Z,8.38
2023-05-12T23:58:55.297Z,8.10
